Portada
METAR-TAF:

METAR-TAF

Aeropuertos :

Radom-Sadków

Radom, Polonia

latitud: 51-23-21N, longitud: 21-12-49E, altitud: 186 m

METAR: falta

Hora: 05:59 (03:59 UTC)

Pronóstico

El informe se hizo hace 13 horas y 59 minutos, a las 14:00 UTC
Pronóstico válido del 31 a las 15 UTC al 31 a las 24 UTC
Viento 8 kt del oeste-suroeste
Visibilidad 10 km o más
sin nubes por debajo de 1500 m y sin presencia de cumulonimbus.

TAF: EPRA 311400Z 3115/3124 24008KT CAVOK

Observaciones y pronósticos meteorológicos de más de 4000 aeropuertos (mensajes METAR y TAF).

Los puntos amarillos y rojos representan las estaciones disponibles.

Ponga el ratón en el punto deseado para ver el nombre de la estación.

Haga clic para ver las observaciones y los pronósticos meteorológicos.

Para cambiar el mapa : haga clic en los botones verdes con una cruz de color negro para hacer un zoom, en el botón verde con un guión para alejar o en las flechas verdes para mapas adyacentes.


METAR-TAF: